createdAt,value
2022-09-07T00:02:25.377Z,98087.00
2022-09-07T00:04:51.558Z,98114.41
2022-09-07T00:07:17.778Z,98201.19
2022-09-07T00:09:44.184Z,98270.31
2022-09-07T00:12:10.424Z,98258.16
2022-09-07T00:14:36.674Z,98254.59
2022-09-07T00:17:02.852Z,98252.91
2022-09-07T00:19:29.038Z,98274.44
2022-09-07T00:21:55.225Z,98276.81
2022-09-07T00:24:21.402Z,98287.59
2022-09-07T00:26:47.592Z,98281.41
2022-09-07T00:29:13.740Z,98297.53
2022-09-07T00:31:39.959Z,98305.72
2022-09-07T00:34:06.136Z,98310.31
2022-09-07T00:36:32.274Z,98306.97
2022-09-07T00:38:58.475Z,98311.50
2022-09-07T00:41:24.608Z,98305.34
2022-09-07T00:43:50.750Z,98328.38
2022-09-07T00:46:16.961Z,98317.34
2022-09-07T00:48:43.115Z,98314.00
2022-09-07T00:51:09.249Z,98300.53
2022-09-07T00:53:35.754Z,98310.09
2022-09-07T00:56:01.881Z,98315.28
2022-09-07T00:58:28.113Z,98302.88
2022-09-07T01:00:54.375Z,98292.69
2022-09-07T01:03:20.537Z,98276.66
2022-09-07T01:05:46.670Z,98264.47
2022-09-07T01:08:12.820Z,98268.84
2022-09-07T01:10:38.940Z,98273.97
2022-09-07T01:13:05.086Z,98276.81
2022-09-07T01:15:31.240Z,98277.53
2022-09-07T01:17:57.368Z,98271.91
2022-09-07T01:20:23.530Z,98286.09
2022-09-07T01:22:49.700Z,98284.56
2022-09-07T01:25:15.827Z,98290.06
2022-09-07T01:27:41.957Z,98278.63
2022-09-07T01:30:08.112Z,98287.78
2022-09-07T01:32:34.246Z,98304.13
2022-09-07T01:35:00.391Z,98299.06
2022-09-07T01:37:26.847Z,98291.91
2022-09-07T01:39:53.003Z,98277.81
2022-09-07T01:42:19.165Z,98283.56
2022-09-07T01:44:45.810Z,98289.47
2022-09-07T01:47:11.950Z,98274.31
2022-09-07T01:49:38.089Z,98271.53
2022-09-07T01:52:04.251Z,98261.69
2022-09-07T01:54:31.696Z,98264.94
2022-09-07T01:56:57.829Z,98267.84
2022-09-07T01:59:23.989Z,98261.34
2022-09-07T02:01:50.152Z,98243.09
2022-09-07T02:04:16.333Z,98225.72
2022-09-07T02:06:42.490Z,98216.38
2022-09-07T02:09:08.634Z,98210.75
2022-09-07T02:11:34.768Z,98208.78
2022-09-07T02:14:00.927Z,98190.44
2022-09-07T02:16:27.063Z,98197.00
2022-09-07T02:18:53.193Z,98187.75
2022-09-07T02:21:19.338Z,98185.88
2022-09-07T02:23:45.478Z,98190.66
2022-09-07T02:26:11.605Z,98182.97
2022-09-07T02:28:37.748Z,98181.16
2022-09-07T02:31:03.929Z,98171.84
2022-09-07T02:33:30.083Z,98161.94
2022-09-07T02:35:56.234Z,98150.72
2022-09-07T02:38:22.361Z,98140.69
2022-09-07T02:40:48.494Z,98138.91
2022-09-07T02:43:14.655Z,98139.16
2022-09-07T02:45:40.780Z,98130.03
2022-09-07T02:48:06.917Z,98129.44
2022-09-07T02:50:33.066Z,98127.56
2022-09-07T02:52:59.200Z,98119.66
2022-09-07T02:55:25.327Z,98115.78
2022-09-07T02:57:51.456Z,98099.69
2022-09-07T03:00:17.592Z,98095.13
2022-09-07T03:02:43.745Z,98093.50
2022-09-07T03:05:09.902Z,98084.38
2022-09-07T03:07:37.002Z,98084.03
2022-09-07T03:10:05.147Z,98075.50
2022-09-07T03:12:31.306Z,98070.34
2022-09-07T03:14:57.443Z,98059.16
2022-09-07T03:17:23.580Z,98072.47
2022-09-07T03:19:49.738Z,98062.44
2022-09-07T03:22:15.875Z,98065.13
2022-09-07T03:24:42.025Z,98069.44
2022-09-07T03:27:08.171Z,98062.44
2022-09-07T03:29:34.297Z,98068.16
2022-09-07T03:32:00.459Z,98063.34
2022-09-07T03:34:26.604Z,98069.53
2022-09-07T03:36:52.733Z,98071.78
2022-09-07T03:39:18.869Z,98076.06
2022-09-07T03:41:45.301Z,98074.66
2022-09-07T03:44:11.429Z,98071.88
2022-09-07T03:46:37.570Z,98082.78
2022-09-07T03:49:04.219Z,98081.63
2022-09-07T03:51:30.368Z,98079.94
2022-09-07T03:53:56.520Z,98079.75
2022-09-07T03:56:22.680Z,98082.59
2022-09-07T03:58:48.820Z,98076.88
2022-09-07T04:01:15.011Z,98071.06
2022-09-07T04:03:41.182Z,98067.31
2022-09-07T04:06:07.315Z,98069.91
2022-09-07T04:08:33.450Z,98067.25
2022-09-07T04:10:59.608Z,98060.75
2022-09-07T04:13:25.745Z,98055.59
2022-09-07T04:15:53.861Z,98063.06
2022-09-07T04:18:20.261Z,98055.47
2022-09-07T04:20:46.398Z,98051.50
2022-09-07T04:23:12.535Z,98054.94
2022-09-07T04:25:38.676Z,98052.50
2022-09-07T04:28:04.814Z,98046.19
2022-09-07T04:30:31.008Z,98051.41
2022-09-07T04:32:57.185Z,98051.31
2022-09-07T04:35:23.304Z,98047.00
2022-09-07T04:37:49.458Z,98045.38
2022-09-07T04:40:15.637Z,98042.06
2022-09-07T04:42:41.841Z,98045.59
2022-09-07T04:45:07.965Z,98045.59
2022-09-07T04:47:34.122Z,98039.56
2022-09-07T04:50:00.281Z,98044.00
2022-09-07T04:52:26.412Z,98047.50
2022-09-07T04:54:53.028Z,98049.31
2022-09-07T04:57:19.166Z,98053.06
2022-09-07T04:59:45.300Z,98048.16
2022-09-07T05:02:11.523Z,98054.59
2022-09-07T05:04:37.668Z,98067.63
2022-09-07T05:07:03.799Z,98069.72
2022-09-07T05:09:29.962Z,98071.16
2022-09-07T05:11:56.110Z,98078.53
2022-09-07T05:14:22.272Z,98084.81
2022-09-07T05:16:48.469Z,98084.91
2022-09-07T05:19:14.617Z,98088.44
2022-09-07T05:21:40.762Z,98082.94
2022-09-07T05:24:06.925Z,98083.06
2022-09-07T05:26:33.077Z,98084.03
2022-09-07T05:31:45.364Z,98098.03
2022-09-07T05:36:57.641Z,98104.56
2022-09-07T05:39:23.759Z,98104.78
2022-09-07T05:41:49.889Z,98110.28
2022-09-07T05:47:02.201Z,98099.22
2022-09-07T05:49:28.360Z,98108.13
2022-09-07T05:51:54.482Z,98104.59
2022-09-07T05:54:20.605Z,98107.75
2022-09-07T05:56:47.303Z,98111.75
2022-09-07T05:59:13.428Z,98111.41
2022-09-07T06:01:39.601Z,98114.38
2022-09-07T06:04:05.810Z,98114.25
2022-09-07T06:06:31.942Z,98113.19
2022-09-07T06:08:58.075Z,98117.50
2022-09-07T06:11:24.522Z,98115.16
2022-09-07T06:13:50.659Z,98115.09
2022-09-07T06:16:16.907Z,98124.22
2022-09-07T06:18:43.072Z,98125.50
2022-09-07T06:21:09.194Z,98122.78
2022-09-07T06:23:35.321Z,98127.28
2022-09-07T06:26:01.810Z,98125.00
2022-09-07T06:28:27.951Z,98121.25
2022-09-07T06:30:54.142Z,98130.38
2022-09-07T06:33:31.630Z,98133.19
2022-09-07T06:35:57.859Z,98132.00
2022-09-07T06:38:24.776Z,98134.59
2022-09-07T06:43:40.001Z,98139.16
2022-09-07T06:48:55.138Z,98148.84
2022-09-07T06:51:21.294Z,98139.03
2022-09-07T06:53:48.010Z,98143.69
2022-09-07T06:56:14.281Z,98152.22
2022-09-07T06:58:42.392Z,98140.31
2022-09-07T07:01:08.774Z,98143.13
2022-09-07T07:03:34.975Z,98137.13
2022-09-07T07:06:01.152Z,98141.47
2022-09-07T07:08:27.282Z,98144.25
2022-09-07T07:10:53.429Z,98160.72
2022-09-07T07:15:44.615Z,98163.31
2022-09-07T07:18:20.898Z,98173.38
2022-09-07T07:20:47.560Z,98174.66
2022-09-07T07:23:13.790Z,98169.38
2022-09-07T07:25:39.953Z,98181.91
2022-09-07T07:30:52.240Z,98178.25
2022-09-07T07:33:18.378Z,98175.09
2022-09-07T07:35:44.477Z,98175.44
2022-09-07T07:43:42.752Z,98177.31
2022-09-07T07:46:08.885Z,98178.91
2022-09-07T07:48:35.043Z,98173.03
2022-09-07T07:51:04.388Z,98177.56
2022-09-07T07:53:42.002Z,98183.38
2022-09-07T07:56:08.644Z,98182.66
2022-09-07T07:58:34.745Z,98185.00
2022-09-07T08:01:00.940Z,98190.56
2022-09-07T08:03:27.248Z,98184.38
2022-09-07T08:05:53.413Z,98183.34
2022-09-07T08:08:19.493Z,98196.97
2022-09-07T08:10:45.706Z,98193.97
2022-09-07T08:13:11.804Z,98199.78
2022-09-07T08:15:37.895Z,98209.47
2022-09-07T08:18:04.511Z,98208.44
2022-09-07T08:20:30.617Z,98202.53
2022-09-07T08:22:56.722Z,98210.78
2022-09-07T08:25:22.837Z,98209.97
2022-09-07T08:27:48.954Z,98215.00
2022-09-07T08:30:15.058Z,98215.84
2022-09-07T08:32:41.175Z,98221.56
2022-09-07T08:35:07.283Z,98216.28
2022-09-07T08:37:33.382Z,98229.75
2022-09-07T08:39:59.556Z,98230.25
2022-09-07T08:42:25.686Z,98224.38
2022-09-07T08:44:51.793Z,98234.00
2022-09-07T08:47:18.244Z,98238.25
2022-09-07T08:49:44.346Z,98242.84
2022-09-07T08:52:10.449Z,98235.06
2022-09-07T08:54:36.562Z,98241.53
2022-09-07T08:59:48.745Z,98236.38
2022-09-07T09:02:33.678Z,98239.81
2022-09-07T09:05:17.836Z,98240.22
2022-09-07T09:07:44.494Z,98252.97
2022-09-07T09:10:10.611Z,98253.28
2022-09-07T09:12:37.872Z,98251.66
2022-09-07T09:15:04.113Z,98248.38
2022-09-07T09:17:30.247Z,98245.59
2022-09-07T09:19:56.368Z,98240.69
2022-09-07T09:22:22.490Z,98250.47
2022-09-07T09:24:48.614Z,98252.50
2022-09-07T09:27:14.737Z,98243.47
2022-09-07T09:29:40.830Z,98254.41
2022-09-07T09:32:06.999Z,98249.34
2022-09-07T09:34:35.133Z,98242.44
2022-09-07T09:37:01.398Z,98242.44
2022-09-07T09:39:27.642Z,98249.63
2022-09-07T09:41:53.809Z,98250.13
2022-09-07T09:44:19.921Z,98248.78
2022-09-07T09:46:46.137Z,98246.53
2022-09-07T09:49:12.295Z,98243.50
2022-09-07T09:54:24.520Z,98237.88
2022-09-07T09:56:50.639Z,98241.38
2022-09-07T10:04:48.951Z,98235.78
2022-09-07T10:07:15.073Z,98240.47
2022-09-07T10:09:41.169Z,98231.16
2022-09-07T10:12:07.969Z,98229.72
2022-09-07T10:14:34.559Z,98220.69
2022-09-07T10:17:02.145Z,98234.13
2022-09-07T10:19:28.417Z,98221.53
2022-09-07T10:21:54.598Z,98226.78
2022-09-07T10:24:20.679Z,98225.25
2022-09-07T10:26:46.776Z,98221.63
2022-09-07T10:29:13.168Z,98222.63
2022-09-07T10:31:39.659Z,98216.06
2022-09-07T10:36:51.938Z,98221.44
2022-09-07T10:39:18.022Z,98212.25
2022-09-07T10:41:44.106Z,98210.91
2022-09-07T10:44:10.226Z,98217.00
2022-09-07T10:49:22.699Z,98217.00
2022-09-07T10:51:48.802Z,98217.03
2022-09-07T10:54:30.834Z,98217.56
2022-09-07T10:56:57.320Z,98217.88
2022-09-07T10:59:23.959Z,98218.47
2022-09-07T11:01:50.181Z,98221.22
2022-09-07T11:04:16.329Z,98222.84
2022-09-07T11:06:42.426Z,98215.56
2022-09-07T11:09:16.958Z,98217.16
2022-09-07T11:14:30.511Z,98216.00
2022-09-07T11:16:56.672Z,98205.69
2022-09-07T11:19:38.363Z,98216.41
2022-09-07T11:22:04.597Z,98208.88
2022-09-07T11:24:30.877Z,98215.88
2022-09-07T11:26:56.972Z,98204.56
2022-09-07T11:29:30.113Z,98217.19
2022-09-07T11:31:56.228Z,98224.75
2022-09-07T11:34:25.494Z,98228.09
2022-09-07T11:36:51.726Z,98229.75
2022-09-07T11:39:17.808Z,98229.16
2022-09-07T11:41:43.893Z,98233.47
2022-09-07T11:44:10.005Z,98227.50
2022-09-07T11:46:36.154Z,98228.09
2022-09-07T11:49:04.457Z,98228.69
2022-09-07T11:51:30.861Z,98222.38
2022-09-07T11:53:56.955Z,98231.28
2022-09-07T11:56:23.068Z,98231.22
2022-09-07T11:58:49.266Z,98231.50
2022-09-07T12:01:15.371Z,98213.72
2022-09-07T12:03:41.547Z,98216.16
2022-09-07T12:06:07.718Z,98215.03
2022-09-07T12:08:33.803Z,98212.91
2022-09-07T12:10:59.896Z,98202.00
2022-09-07T12:13:26.480Z,98212.06
2022-09-07T12:15:52.661Z,98201.34
2022-09-07T12:18:18.803Z,98195.69
2022-09-07T12:20:44.905Z,98197.34
2022-09-07T12:23:11.003Z,98196.72
2022-09-07T12:25:37.098Z,98197.25
2022-09-07T12:28:03.268Z,98192.63
2022-09-07T12:30:29.360Z,98211.38
2022-09-07T12:32:56.889Z,98208.34
2022-09-07T12:35:24.010Z,98201.06
2022-09-07T12:37:50.112Z,98198.13
2022-09-07T12:40:16.252Z,98194.88
2022-09-07T12:42:42.382Z,98197.28
2022-09-07T12:45:08.466Z,98207.31
2022-09-07T12:47:34.563Z,98212.53
2022-09-07T12:50:00.704Z,98214.09
2022-09-07T12:52:26.808Z,98207.94
2022-09-07T12:55:10.305Z,98219.63
2022-09-07T12:57:39.015Z,98209.06
2022-09-07T13:00:05.140Z,98208.50
2022-09-07T13:02:31.396Z,98216.81
2022-09-07T13:04:57.621Z,98212.31
2022-09-07T13:07:23.747Z,98213.38
2022-09-07T13:09:49.848Z,98199.34
2022-09-07T13:12:52.909Z,98194.72
2022-09-07T13:15:02.044Z,98189.06
2022-09-07T13:17:28.187Z,98186.34
2022-09-07T13:19:54.277Z,98189.31
2022-09-07T13:22:20.369Z,98190.16
2022-09-07T13:24:47.337Z,98202.63
2022-09-07T13:27:14.916Z,98195.88
2022-09-07T13:29:41.037Z,98199.94
2022-09-07T13:32:08.035Z,98185.84
2022-09-07T13:34:34.200Z,98185.28
2022-09-07T13:37:00.296Z,98176.09
2022-09-07T13:39:26.448Z,98189.34
2022-09-07T13:41:52.574Z,98190.72
2022-09-07T13:44:22.350Z,98187.44
2022-09-07T13:46:51.299Z,98179.81
2022-09-07T13:49:17.481Z,98175.00
2022-09-07T13:51:43.596Z,98174.19
2022-09-07T13:54:09.761Z,98165.78
2022-09-07T13:56:35.859Z,98159.81
2022-09-07T13:59:01.934Z,98159.03
2022-09-07T14:01:28.116Z,98161.44
2022-09-07T14:03:54.290Z,98156.03
2022-09-07T14:06:20.394Z,98159.81
2022-09-07T14:08:46.507Z,98161.16
2022-09-07T14:11:12.607Z,98155.75
2022-09-07T14:13:38.695Z,98156.56
2022-09-07T14:16:04.850Z,98154.94
2022-09-07T14:18:30.979Z,98160.91
2022-09-07T14:20:57.079Z,98165.25
2022-09-07T14:23:23.722Z,98166.88
2022-09-07T14:28:35.937Z,98155.75
2022-09-07T14:31:02.142Z,98161.72
2022-09-07T14:33:29.291Z,98164.44
2022-09-07T14:35:55.489Z,98159.03
2022-09-07T14:39:03.996Z,98163.59
2022-09-07T14:41:07.691Z,98157.09
2022-09-07T14:43:33.770Z,98157.63
2022-09-07T14:46:01.909Z,98154.06
2022-09-07T14:48:32.366Z,98154.94
2022-09-07T14:51:26.116Z,98164.44
2022-09-07T14:53:46.587Z,98157.63
2022-09-07T14:56:12.718Z,98151.69
2022-09-07T14:58:38.813Z,98148.44
2022-09-07T15:03:51.046Z,98147.91
2022-09-07T15:09:03.280Z,98149.50
2022-09-07T15:11:36.429Z,98139.19
2022-09-07T15:14:02.586Z,98147.81
2022-09-07T15:16:28.702Z,98145.38
2022-09-07T15:18:54.847Z,98143.31
2022-09-07T15:21:20.957Z,98143.59
2022-09-07T15:23:47.046Z,98150.06
2022-09-07T15:27:02.052Z,98140.56
2022-09-07T15:29:14.978Z,98137.78
2022-09-07T15:31:43.323Z,98126.31
2022-09-07T15:34:11.980Z,98128.50
2022-09-07T15:36:38.078Z,98125.53
2022-09-07T15:39:04.195Z,98124.44
2022-09-07T15:41:30.305Z,98120.94
2022-09-07T15:43:56.853Z,98121.75
2022-09-07T15:46:24.820Z,98131.50
2022-09-07T15:48:51.058Z,98128.25
2022-09-07T15:54:18.464Z,98127.50
2022-09-07T15:57:48.465Z,98133.19
2022-09-07T15:59:30.960Z,98124.19
2022-09-07T16:01:58.186Z,98121.44
2022-09-07T16:04:24.696Z,98125.28
2022-09-07T16:06:50.851Z,98114.63
2022-09-07T16:09:17.478Z,98121.06
2022-09-07T16:11:43.998Z,98119.69
2022-09-07T16:14:10.104Z,98123.47
2022-09-07T16:19:22.315Z,98113.19
2022-09-07T16:21:48.447Z,98121.50
2022-09-07T16:24:14.547Z,98115.81
2022-09-07T16:26:40.698Z,98110.59
2022-09-07T16:29:06.790Z,98115.06
2022-09-07T16:31:33.178Z,98102.63
2022-09-07T16:33:59.544Z,98104.59
2022-09-07T16:36:25.621Z,98100.13
2022-09-07T16:38:51.720Z,98097.88
2022-09-07T16:41:17.842Z,98101.66
2022-09-07T16:43:43.959Z,98098.19
2022-09-07T16:46:10.062Z,98103.09
2022-09-07T16:48:36.181Z,98095.31
2022-09-07T16:51:02.875Z,98090.84
2022-09-07T16:53:29.105Z,98100.28
2022-09-07T16:55:55.208Z,98101.28
2022-09-07T16:58:37.548Z,98092.16
2022-09-07T17:01:04.323Z,98089.06
2022-09-07T17:03:30.498Z,98091.34
2022-09-07T17:05:56.628Z,98096.22
2022-09-07T17:08:22.728Z,98088.94
2022-09-07T17:10:48.820Z,98096.59
2022-09-07T17:13:14.900Z,98091.47
2022-09-07T17:15:40.997Z,98089.88
2022-09-07T17:18:07.111Z,98090.94
2022-09-07T17:20:33.204Z,98089.84
2022-09-07T17:23:00.954Z,98097.72
2022-09-07T17:25:27.149Z,98098.00
2022-09-07T17:27:53.237Z,98091.50
2022-09-07T17:30:20.760Z,98092.03
2022-09-07T17:32:47.137Z,98099.09
2022-09-07T17:35:13.310Z,98102.34
2022-09-07T17:37:39.445Z,98096.38
2022-09-07T17:40:05.959Z,98098.00
2022-09-07T17:45:18.208Z,98099.09
2022-09-07T17:47:44.306Z,98094.75
2022-09-07T17:50:10.402Z,98092.06
2022-09-07T17:52:40.235Z,98107.75
2022-09-07T17:55:07.135Z,98096.38
2022-09-07T17:57:33.217Z,98090.34
2022-09-07T18:00:14.551Z,98098.41
2022-09-07T18:02:40.686Z,98092.13
2022-09-07T18:05:07.355Z,98096.50
2022-09-07T18:07:33.571Z,98103.19
2022-09-07T18:09:59.667Z,98102.13
2022-09-07T18:12:25.768Z,98106.59
2022-09-07T18:14:51.878Z,98105.44
2022-09-07T18:17:17.961Z,98101.69
2022-09-07T18:19:44.057Z,98106.00
2022-09-07T18:22:10.146Z,98108.34
2022-09-07T18:24:36.857Z,98105.00
2022-09-07T18:27:03.592Z,98107.06
2022-09-07T18:29:33.180Z,98100.81
2022-09-07T18:32:00.332Z,98099.69
2022-09-07T18:34:26.498Z,98105.03
2022-09-07T18:36:52.581Z,98103.34
2022-09-07T18:39:18.688Z,98100.00
2022-09-07T18:41:44.782Z,98112.66
2022-09-07T18:46:56.962Z,98117.09
2022-09-07T18:49:23.560Z,98104.69
2022-09-07T18:54:36.952Z,98096.63
2022-09-07T18:57:03.037Z,98098.88
2022-09-07T18:59:29.761Z,98095.19
2022-09-07T19:02:01.335Z,98086.97
2022-09-07T19:05:49.593Z,98093.34
2022-09-07T19:07:16.000Z,98085.53
2022-09-07T19:09:42.086Z,98075.25
2022-09-07T19:12:08.186Z,98079.47
2022-09-07T19:14:34.295Z,98072.63
2022-09-07T19:17:00.412Z,98068.63
2022-09-07T19:19:26.529Z,98065.22
2022-09-07T19:21:52.625Z,98065.16
2022-09-07T19:24:18.729Z,98070.19
2022-09-07T19:26:44.823Z,98068.88
2022-09-07T19:29:11.280Z,98062.34
2022-09-07T19:31:37.418Z,98061.53
2022-09-07T19:34:03.526Z,98060.97
2022-09-07T19:36:29.624Z,98056.56
2022-09-07T19:38:55.701Z,98063.78
2022-09-07T19:41:21.778Z,98057.50
2022-09-07T19:43:47.915Z,98045.72
2022-09-07T19:46:14.011Z,98047.88
2022-09-07T19:48:40.104Z,98051.75
2022-09-07T19:51:06.232Z,98056.56
2022-09-07T19:53:32.407Z,98052.19
2022-09-07T19:55:58.585Z,98047.31
2022-09-07T19:58:24.685Z,98046.47
2022-09-07T20:00:50.845Z,98049.44
2022-09-07T20:03:16.962Z,98040.28
2022-09-07T20:05:43.079Z,98033.00
2022-09-07T20:08:09.178Z,98036.47
2022-09-07T20:10:35.271Z,98040.72
2022-09-07T20:13:01.389Z,98039.97
2022-09-07T20:15:27.485Z,98038.03
2022-09-07T20:17:53.568Z,98049.31
2022-09-07T20:20:19.694Z,98043.53
2022-09-07T20:22:45.788Z,98038.09
2022-09-07T20:25:13.330Z,98031.34
2022-09-07T20:27:39.620Z,98018.28
2022-09-07T20:30:05.714Z,98025.47
2022-09-07T20:32:31.807Z,98031.19
2022-09-07T20:34:58.563Z,98027.75
2022-09-07T20:37:24.670Z,98018.63
2022-09-07T20:39:50.803Z,98010.47
2022-09-07T20:42:16.961Z,98013.63
2022-09-07T20:44:43.047Z,98017.88
2022-09-07T20:47:09.207Z,98016.25
2022-09-07T20:49:35.399Z,98008.16
2022-09-07T20:52:01.543Z,98007.59
2022-09-07T20:54:27.632Z,98012.81
2022-09-07T20:56:53.749Z,98011.13
2022-09-07T20:59:19.846Z,98010.63
2022-09-07T21:01:45.946Z,98013.56
2022-09-07T21:04:12.097Z,98016.00
2022-09-07T21:06:38.185Z,98007.22
2022-09-07T21:09:04.271Z,98017.47
2022-09-07T21:11:30.885Z,98013.47
2022-09-07T21:13:56.983Z,98003.78
2022-09-07T21:16:23.159Z,98016.66
2022-09-07T21:18:49.340Z,98015.94
2022-09-07T21:21:20.025Z,98008.59
2022-09-07T21:23:46.637Z,98006.56
2022-09-07T21:26:12.737Z,98010.22
2022-09-07T21:28:38.833Z,98003.22
2022-09-07T21:31:04.933Z,98006.13
2022-09-07T21:33:31.114Z,98005.81
2022-09-07T21:35:57.221Z,97990.25
2022-09-07T21:38:23.312Z,97982.09
2022-09-07T21:40:49.414Z,97981.03
2022-09-07T21:43:15.521Z,97983.47
2022-09-07T21:45:41.623Z,97978.84
2022-09-07T21:48:07.748Z,97981.75
2022-09-07T21:50:33.845Z,97982.41
2022-09-07T21:52:59.943Z,97977.44
2022-09-07T21:55:26.067Z,97972.44
2022-09-07T21:57:52.232Z,97972.44
2022-09-07T22:00:18.326Z,97971.88
2022-09-07T22:02:44.438Z,97964.28
2022-09-07T22:05:10.522Z,97962.75
2022-09-07T22:07:36.623Z,97957.97
2022-09-07T22:10:02.720Z,97955.50
2022-09-07T22:12:28.811Z,97947.00
2022-09-07T22:14:54.902Z,97943.28
2022-09-07T22:17:21.021Z,97943.66
2022-09-07T22:19:47.135Z,97944.75
2022-09-07T22:22:13.246Z,97949.47
2022-09-07T22:24:39.366Z,97948.22
2022-09-07T22:27:05.462Z,97955.97
2022-09-07T22:29:31.557Z,97960.28
2022-09-07T22:31:57.748Z,97958.59
2022-09-07T22:34:23.857Z,97946.03
2022-09-07T22:36:49.949Z,97947.41
2022-09-07T22:39:16.125Z,97951.56
2022-09-07T22:41:42.274Z,97942.84
2022-09-07T22:44:08.370Z,97940.31
2022-09-07T22:46:34.563Z,97944.72
2022-09-07T22:49:00.698Z,97932.22
2022-09-07T22:51:26.850Z,97941.34
2022-09-07T22:53:52.972Z,97942.88
2022-09-07T22:56:19.062Z,97946.97
2022-09-07T22:58:45.160Z,97934.09
2022-09-07T23:01:11.265Z,97947.28
2022-09-07T23:03:37.560Z,97946.38
2022-09-07T23:06:03.848Z,97940.16
2022-09-07T23:08:29.960Z,97936.09
2022-09-07T23:10:56.065Z,97935.28
2022-09-07T23:13:22.161Z,97938.81
2022-09-07T23:15:48.332Z,97925.97
2022-09-07T23:18:14.445Z,97930.94
2022-09-07T23:20:40.522Z,97927.34
2022-09-07T23:23:06.617Z,97927.63
2022-09-07T23:25:32.742Z,97918.44
2022-09-07T23:27:58.842Z,97907.47
2022-09-07T23:30:24.951Z,97908.59
2022-09-07T23:32:51.024Z,97899.84
2022-09-07T23:35:17.127Z,97900.22
2022-09-07T23:37:43.267Z,97898.56
2022-09-07T23:40:09.450Z,97900.84
2022-09-07T23:42:35.597Z,97898.28
2022-09-07T23:45:02.341Z,97900.66
2022-09-07T23:47:28.421Z,97903.81
2022-09-07T23:49:54.518Z,97898.19
2022-09-07T23:52:20.635Z,97900.69
2022-09-07T23:54:46.717Z,97887.53
2022-09-07T23:57:12.806Z,97886.13
2022-09-07T23:59:38.907Z,97893.56
